Time;durP1;ratioP1;P1;durP2;ratioP2;P2;SDS_P1;SDS_P2;PMS_P1;PMS_P2;Temp;Humidity;BMP_temperature;BMP_pressure;BME280_temperature;BME280_humidity;BME280_pressure;Samples;Min_cycle;Max_cycle;Signal;HPM_P1;HPM_P2
2022/12/21 00:01:08;;;;;;;105.77;47.60;;;;;;;;;;4978690;28;20205;-81
2022/12/21 00:03:34;;;;;;;121.00;49.60;;;;;;;;;;4995131;28;20193;-81
2022/12/21 00:06:00;;;;;;;123.10;48.30;;;;;;;;;;5012237;28;20202;-81
2022/12/21 00:08:26;;;;;;;118.47;48.33;;;;;;;;;;4985042;28;20283;-81
2022/12/21 00:10:57;;;;;;;128.53;50.00;;;;;;;;;;4995943;28;20193;-81
2022/12/21 00:13:23;;;;;;;122.60;49.17;;;;;;;;;;4991092;28;20182;-81
2022/12/21 00:16:00;;;;;;;109.80;46.60;;;;;;;;;;4995457;28;20194;-81
2022/12/21 00:18:26;;;;;;;112.93;47.10;;;;;;;;;;4991209;28;20241;-81
2022/12/21 00:21:05;;;;;;;111.97;47.53;;;;;;;;;;4976245;28;20175;-82
2022/12/21 00:23:31;;;;;;;116.53;46.83;;;;;;;;;;4977191;28;20246;-81
2022/12/21 00:26:01;;;;;;;120.47;47.37;;;;;;;;;;4977236;28;20206;-81
2022/12/21 00:28:27;;;;;;;135.10;49.60;;;;;;;;;;4986252;28;20179;-81
2022/12/21 00:30:53;;;;;;;116.57;47.07;;;;;;;;;;4992205;28;20285;-81
2022/12/21 00:33:19;;;;;;;117.23;48.30;;;;;;;;;;4993993;28;20329;-88
2022/12/21 00:35:48;;;;;;;114.47;47.73;;;;;;;;;;4993823;28;20186;-84
2022/12/21 00:38:15;;;;;;;119.90;47.70;;;;;;;;;;4983339;28;20225;-84
2022/12/21 00:40:41;;;;;;;138.83;49.87;;;;;;;;;;4992147;28;20189;-84
2022/12/21 00:43:07;;;;;;;126.90;49.40;;;;;;;;;;4976069;28;20310;-84
2022/12/21 00:45:33;;;;;;;123.17;48.33;;;;;;;;;;4995215;28;20345;-84
2022/12/21 00:47:59;;;;;;;115.40;47.80;;;;;;;;;;4988940;28;20216;-84
2022/12/21 00:50:25;;;;;;;127.87;49.13;;;;;;;;;;5011579;28;20182;-80
2022/12/21 00:52:51;;;;;;;125.40;50.03;;;;;;;;;;4994973;28;20200;-80
2022/12/21 00:55:17;;;;;;;138.60;50.00;;;;;;;;;;5014219;28;20189;-84
2022/12/21 00:57:43;;;;;;;137.90;51.70;;;;;;;;;;4978715;28;20210;-84
2022/12/21 01:00:09;;;;;;;137.47;51.60;;;;;;;;;;4962679;28;20182;-84
2022/12/21 01:02:35;;;;;;;131.17;50.70;;;;;;;;;;4994891;28;20185;-84
2022/12/21 01:05:02;;;;;;;160.83;52.13;;;;;;;;;;5007036;28;20182;-85
2022/12/21 01:07:28;;;;;;;141.73;50.90;;;;;;;;;;4994926;28;20185;-82
2022/12/21 01:09:54;;;;;;;165.77;51.73;;;;;;;;;;4988370;28;20269;-81
2022/12/21 01:12:20;;;;;;;150.37;50.07;;;;;;;;;;4995745;28;20220;-81
2022/12/21 01:14:46;;;;;;;143.80;50.63;;;;;;;;;;4997794;28;20193;-88
2022/12/21 01:17:12;;;;;;;144.90;51.37;;;;;;;;;;5008260;28;20213;-88
2022/12/21 01:19:38;;;;;;;143.70;50.67;;;;;;;;;;4991385;28;20257;-84
2022/12/21 01:22:04;;;;;;;159.70;51.47;;;;;;;;;;4997790;28;20262;-80
2022/12/21 01:24:30;;;;;;;149.00;50.77;;;;;;;;;;4990371;28;20177;-80
2022/12/21 01:26:56;;;;;;;155.63;50.60;;;;;;;;;;4982217;28;20189;-79
2022/12/21 01:29:22;;;;;;;142.27;50.53;;;;;;;;;;4995983;28;20182;-80
2022/12/21 01:31:48;;;;;;;146.83;50.83;;;;;;;;;;4995898;28;20173;-80
2022/12/21 01:34:14;;;;;;;148.77;51.93;;;;;;;;;;4986777;28;20193;-79
2022/12/21 01:36:40;;;;;;;151.17;52.33;;;;;;;;;;5010954;28;20178;-79
2022/12/21 01:39:06;;;;;;;149.10;52.90;;;;;;;;;;5014547;28;20208;-88
2022/12/21 01:41:32;;;;;;;152.23;53.50;;;;;;;;;;4979542;28;20186;-87
2022/12/21 01:44:00;;;;;;;160.30;54.57;;;;;;;;;;4963149;28;20182;-88
2022/12/21 01:46:26;;;;;;;172.07;53.63;;;;;;;;;;4995879;28;20229;-88
2022/12/21 01:48:55;;;;;;;161.17;53.20;;;;;;;;;;5011008;28;20182;-88
2022/12/21 01:51:22;;;;;;;157.90;52.20;;;;;;;;;;5010542;28;20182;-88
2022/12/21 01:53:50;;;;;;;160.77;51.97;;;;;;;;;;5010505;28;20186;-88
2022/12/21 01:56:19;;;;;;;161.60;51.80;;;;;;;;;;5013423;28;20224;-84
2022/12/21 01:58:45;;;;;;;148.10;50.67;;;;;;;;;;4996626;28;20211;-88
2022/12/21 02:01:11;;;;;;;149.60;51.37;;;;;;;;;;4996605;28;20183;-89
2022/12/21 02:03:44;;;;;;;169.53;51.50;;;;;;;;;;4997155;28;20182;-87
2022/12/21 02:06:11;;;;;;;166.17;52.10;;;;;;;;;;4995364;28;20226;-81
2022/12/21 02:08:37;;;;;;;166.50;51.53;;;;;;;;;;4995091;28;20182;-81
2022/12/21 02:11:04;;;;;;;156.00;53.60;;;;;;;;;;4993233;28;20193;-81
2022/12/21 02:13:30;;;;;;;163.33;50.93;;;;;;;;;;4995604;28;20196;-81
2022/12/21 02:15:59;;;;;;;166.20;52.80;;;;;;;;;;5012953;28;20197;-81
2022/12/21 02:18:44;;;;;;;171.47;52.37;;;;;;;;;;4982172;28;20212;-81
2022/12/21 02:21:10;;;;;;;146.73;50.30;;;;;;;;;;5001018;28;20185;-84
2022/12/21 02:24:02;;;;;;;155.77;52.77;;;;;;;;;;4996544;28;20178;-84
2022/12/21 02:26:47;;;;;;;160.30;52.10;;;;;;;;;;4987980;28;20186;-84
2022/12/21 02:29:19;;;;;;;147.23;51.17;;;;;;;;;;4995281;28;20177;-84
2022/12/21 02:31:48;;;;;;;159.23;52.80;;;;;;;;;;5007037;28;20178;-84
2022/12/21 02:34:27;;;;;;;172.97;53.07;;;;;;;;;;5012898;28;20184;-84
2022/12/21 02:37:09;;;;;;;144.70;50.03;;;;;;;;;;4988110;28;20173;-84
2022/12/21 02:39:54;;;;;;;141.53;51.47;;;;;;;;;;5012808;28;20185;-84
2022/12/21 02:45:31;;;;;;;153.63;48.87;;;;;;;;;;5004044;28;20203;-81
2022/12/21 02:48:14;;;;;;;161.90;50.93;;;;;;;;;;4984716;28;20272;-80
2022/12/21 02:50:43;;;;;;;145.13;50.13;;;;;;;;;;5009576;28;20236;-81
2022/12/21 02:53:20;;;;;;;153.87;49.40;;;;;;;;;;5012390;28;20177;-82
2022/12/21 02:55:47;;;;;;;151.97;50.50;;;;;;;;;;4994182;28;20212;-81
2022/12/21 02:58:12;;;;;;;173.83;52.43;;;;;;;;;;4992776;28;20204;-81
2022/12/21 03:00:45;;;;;;;160.53;50.40;;;;;;;;;;4998077;28;20204;-81
2022/12/21 03:03:49;;;;;;;190.63;53.70;;;;;;;;;;5015345;28;20209;-81
2022/12/21 03:06:15;;;;;;;177.47;52.03;;;;;;;;;;4997354;28;20189;-81
2022/12/21 03:08:44;;;;;;;156.67;50.60;;;;;;;;;;5014506;28;20197;-81
2022/12/21 03:11:10;;;;;;;158.03;51.63;;;;;;;;;;4999172;28;20189;-81
2022/12/21 03:14:00;;;;;;;149.93;50.27;;;;;;;;;;5012905;28;20213;-81
2022/12/21 03:16:30;;;;;;;151.50;49.00;;;;;;;;;;5014575;28;20174;-81
2022/12/21 03:19:03;;;;;;;159.83;50.50;;;;;;;;;;5017521;28;20228;-81
2022/12/21 03:21:38;;;;;;;168.63;51.30;;;;;;;;;;4999224;28;20223;-81
2022/12/21 03:24:11;;;;;;;176.27;50.50;;;;;;;;;;5000085;28;20196;-81
2022/12/21 03:26:47;;;;;;;151.60;49.73;;;;;;;;;;4997426;28;20300;-81
2022/12/21 03:29:15;;;;;;;184.53;51.87;;;;;;;;;;5013110;28;20185;-81
2022/12/21 03:31:44;;;;;;;151.77;50.23;;;;;;;;;;5013863;28;20178;-81
2022/12/21 03:34:19;;;;;;;185.90;52.60;;;;;;;;;;5017343;28;20251;-81
2022/12/21 03:37:05;;;;;;;171.40;49.57;;;;;;;;;;4997726;28;20178;-88
2022/12/21 03:39:32;;;;;;;165.43;50.57;;;;;;;;;;4999838;28;20192;-88
2022/12/21 03:42:01;;;;;;;174.90;49.47;;;;;;;;;;4996656;28;20178;-88
2022/12/21 03:44:31;;;;;;;220.43;52.70;;;;;;;;;;4997431;28;20180;-88
2022/12/21 03:47:03;;;;;;;151.37;48.37;;;;;;;;;;5004162;28;20218;-88
2022/12/21 03:49:33;;;;;;;171.97;49.03;;;;;;;;;;5008253;28;20186;-88
2022/12/21 03:52:19;;;;;;;203.93;50.73;;;;;;;;;;5013159;28;20185;-80
2022/12/21 03:54:45;;;;;;;206.57;51.53;;;;;;;;;;5013219;28;20181;-80
2022/12/21 03:57:11;;;;;;;144.67;47.87;;;;;;;;;;4997376;28;20170;-80
2022/12/21 03:59:40;;;;;;;165.43;49.30;;;;;;;;;;4996417;28;20177;-80
2022/12/21 04:02:12;;;;;;;187.83;49.63;;;;;;;;;;5012710;28;20228;-80
2022/12/21 04:04:47;;;;;;;213.23;53.20;;;;;;;;;;5013073;28;20178;-80
2022/12/21 04:07:15;;;;;;;221.13;51.93;;;;;;;;;;5012381;28;20188;-80
2022/12/21 04:09:41;;;;;;;184.43;50.63;;;;;;;;;;5012613;28;20314;-81
2022/12/21 04:14:52;;;;;;;174.17;47.93;;;;;;;;;;5016551;28;20261;-81
2022/12/21 04:17:18;;;;;;;240.57;51.80;;;;;;;;;;4986358;28;20212;-84
2022/12/21 04:19:59;;;;;;;237.43;51.23;;;;;;;;;;4999635;28;20181;-84
2022/12/21 04:28:09;;;;;;;261.60;50.60;;;;;;;;;;5013934;28;20196;-81
2022/12/21 04:30:39;;;;;;;225.37;50.50;;;;;;;;;;4998950;28;20192;-82
2022/12/21 04:33:05;;;;;;;437.77;58.80;;;;;;;;;;5016363;28;20195;-81
2022/12/21 04:35:31;;;;;;;197.97;48.50;;;;;;;;;;4999415;28;20192;-82
2022/12/21 04:37:57;;;;;;;199.80;50.07;;;;;;;;;;4998867;28;20213;-81
2022/12/21 04:40:23;;;;;;;224.47;53.63;;;;;;;;;;4999624;28;20186;-81
2022/12/21 04:42:49;;;;;;;271.83;57.03;;;;;;;;;;4992203;28;20300;-80
2022/12/21 04:45:15;;;;;;;266.80;54.60;;;;;;;;;;4998957;28;20180;-81
2022/12/21 04:47:41;;;;;;;205.97;51.13;;;;;;;;;;4982878;28;20232;-80
2022/12/21 04:50:08;;;;;;;228.23;53.30;;;;;;;;;;4982813;28;20253;-80
2022/12/21 04:52:34;;;;;;;231.27;53.13;;;;;;;;;;5016060;28;20187;-80
2022/12/21 04:55:00;;;;;;;229.33;54.07;;;;;;;;;;5015188;28;20272;-80
2022/12/21 04:57:26;;;;;;;262.53;57.50;;;;;;;;;;5015515;28;20241;-84
2022/12/21 04:59:52;;;;;;;250.43;56.43;;;;;;;;;;4995425;28;20216;-84
2022/12/21 05:02:21;;;;;;;239.23;55.40;;;;;;;;;;4995260;28;20186;-85
2022/12/21 05:04:47;;;;;;;208.27;53.67;;;;;;;;;;4979108;28;20197;-85
2022/12/21 05:07:13;;;;;;;226.73;54.47;;;;;;;;;;4996928;28;20196;-85
2022/12/21 05:09:39;;;;;;;243.43;54.70;;;;;;;;;;4982187;28;20181;-84
2022/12/21 05:12:05;;;;;;;201.27;52.53;;;;;;;;;;5011222;28;20181;-85
2022/12/21 05:14:32;;;;;;;215.43;52.97;;;;;;;;;;5015680;28;20196;-85
2022/12/21 05:16:58;;;;;;;186.53;51.97;;;;;;;;;;5010983;28;20322;-88
2022/12/21 05:19:24;;;;;;;185.97;52.40;;;;;;;;;;4998260;28;20204;-88
2022/12/21 05:21:51;;;;;;;184.87;51.30;;;;;;;;;;5013933;28;20212;-89
2022/12/21 05:24:17;;;;;;;183.93;51.10;;;;;;;;;;5015802;28;20173;-88
2022/12/21 05:26:43;;;;;;;170.80;48.80;;;;;;;;;;4998421;28;20181;-88
2022/12/21 05:29:10;;;;;;;170.20;49.73;;;;;;;;;;4982150;28;20193;-89
2022/12/21 05:31:36;;;;;;;206.03;52.47;;;;;;;;;;4998005;28;20177;-81
2022/12/21 05:34:02;;;;;;;166.53;49.60;;;;;;;;;;4978906;28;20189;-79
2022/12/21 05:36:29;;;;;;;181.20;50.73;;;;;;;;;;4962776;28;20197;-80
2022/12/21 05:38:57;;;;;;;167.87;50.43;;;;;;;;;;4994570;28;20233;-79
2022/12/21 05:41:25;;;;;;;140.45;55.78;;;;;;;;;;5009807;28;20417;-80
2022/12/21 05:43:51;;;;;;;214.93;55.67;;;;;;;;;;4994179;28;20182;-80
2022/12/21 05:46:18;;;;;;;266.47;56.43;;;;;;;;;;5004638;23;20239;-81
2022/12/21 05:48:44;;;;;;;181.43;52.07;;;;;;;;;;4973168;28;20191;-82
2022/12/21 05:51:10;;;;;;;168.07;49.57;;;;;;;;;;4976392;28;20183;-81
2022/12/21 05:53:39;;;;;;;232.20;53.77;;;;;;;;;;4988900;28;20182;-81
2022/12/21 05:56:05;;;;;;;194.73;53.17;;;;;;;;;;5009432;28;20186;-81
2022/12/21 05:58:31;;;;;;;199.70;55.57;;;;;;;;;;4965946;28;20210;-81
2022/12/21 06:01:02;;;;;;;188.87;53.23;;;;;;;;;;4962057;28;20233;-81
2022/12/21 06:03:28;;;;;;;210.90;56.60;;;;;;;;;;4995805;28;20186;-81
2022/12/21 06:05:54;;;;;;;192.73;56.87;;;;;;;;;;4993622;28;20182;-80
2022/12/21 06:08:20;;;;;;;199.93;55.60;;;;;;;;;;4987026;28;20292;-80
2022/12/21 06:10:46;;;;;;;195.30;56.07;;;;;;;;;;4961710;28;20297;-80
2022/12/21 06:13:12;;;;;;;190.83;56.80;;;;;;;;;;4971712;28;20197;-80
2022/12/21 06:15:38;;;;;;;174.33;55.37;;;;;;;;;;4996595;28;20353;-81
2022/12/21 06:18:04;;;;;;;194.50;57.70;;;;;;;;;;4985347;28;20209;-81
2022/12/21 06:20:30;;;;;;;185.30;57.87;;;;;;;;;;4980524;28;20182;-81
2022/12/21 06:22:56;;;;;;;199.20;59.77;;;;;;;;;;4977691;28;20193;-81
2022/12/21 06:25:22;;;;;;;217.00;59.93;;;;;;;;;;4993378;28;20186;-81
2022/12/21 06:27:48;;;;;;;219.80;60.33;;;;;;;;;;4997870;28;20245;-81
2022/12/21 06:30:15;;;;;;;186.53;54.77;;;;;;;;;;4971429;28;20194;-82
2022/12/21 06:32:41;;;;;;;181.30;56.50;;;;;;;;;;4990305;28;20182;-81
2022/12/21 06:35:07;;;;;;;166.83;54.40;;;;;;;;;;4999848;28;20249;-82
2022/12/21 06:37:33;;;;;;;184.67;56.57;;;;;;;;;;4992289;28;20202;-81
2022/12/21 06:39:59;;;;;;;195.27;56.80;;;;;;;;;;4959277;28;20186;-84
2022/12/21 06:42:25;;;;;;;166.60;54.20;;;;;;;;;;4974144;28;20179;-84
2022/12/21 06:44:51;;;;;;;174.63;54.80;;;;;;;;;;4994529;28;20208;-84
2022/12/21 06:47:17;;;;;;;191.07;56.53;;;;;;;;;;4981070;28;20252;-84
2022/12/21 06:49:43;;;;;;;167.77;54.27;;;;;;;;;;4965875;28;20201;-84
2022/12/21 06:52:09;;;;;;;169.10;55.23;;;;;;;;;;4973704;28;20198;-84
2022/12/21 06:54:35;;;;;;;160.93;52.43;;;;;;;;;;4960864;28;20189;-84
2022/12/21 06:57:01;;;;;;;166.00;54.57;;;;;;;;;;4976935;28;20178;-80
2022/12/21 06:59:27;;;;;;;157.27;54.07;;;;;;;;;;5001371;28;20197;-80
2022/12/21 07:01:53;;;;;;;173.63;52.97;;;;;;;;;;4987637;28;20306;-79
2022/12/21 07:04:20;;;;;;;194.83;55.80;;;;;;;;;;4964220;28;20185;-81
2022/12/21 07:06:48;;;;;;;159.47;53.30;;;;;;;;;;4965321;28;20190;-80
2022/12/21 07:09:14;;;;;;;166.47;53.73;;;;;;;;;;4964686;28;20186;-80
2022/12/21 07:11:40;;;;;;;163.10;53.17;;;;;;;;;;4983055;28;20190;-89
2022/12/21 07:14:07;;;;;;;159.83;51.60;;;;;;;;;;4992974;28;20178;-89
2022/12/21 07:16:33;;;;;;;154.63;51.00;;;;;;;;;;4990044;28;20186;-89
2022/12/21 07:18:59;;;;;;;157.93;52.97;;;;;;;;;;4990791;28;20215;-90
2022/12/21 07:21:25;;;;;;;176.93;53.73;;;;;;;;;;4996566;28;20236;-80
2022/12/21 07:23:51;;;;;;;163.80;52.50;;;;;;;;;;5011337;28;20224;-80
2022/12/21 07:26:21;;;;;;;151.53;51.83;;;;;;;;;;4992194;28;20186;-79
2022/12/21 07:28:47;;;;;;;166.17;53.47;;;;;;;;;;5006115;28;20192;-83
2022/12/21 07:31:23;;;;;;;150.23;52.07;;;;;;;;;;4991083;28;20193;-84
2022/12/21 07:33:49;;;;;;;178.63;53.20;;;;;;;;;;4993782;28;20205;-85
2022/12/21 07:36:15;;;;;;;155.67;51.37;;;;;;;;;;4961366;28;20190;-85
2022/12/21 07:38:41;;;;;;;155.33;51.00;;;;;;;;;;4980412;28;20201;-85
2022/12/21 07:41:09;;;;;;;165.00;51.63;;;;;;;;;;4961973;28;20201;-80
2022/12/21 07:43:35;;;;;;;163.67;51.53;;;;;;;;;;4993417;28;20204;-80
2022/12/21 07:46:02;;;;;;;174.25;66.57;;;;;;;;;;4979403;28;20444;-89
2022/12/21 07:48:28;;;;;;;148.20;52.43;;;;;;;;;;4980754;28;20189;-89
2022/12/21 07:50:54;;;;;;;151.50;51.67;;;;;;;;;;4961603;28;20185;-88
2022/12/21 07:53:21;;;;;;;147.87;48.37;;;;;;;;;;4997130;28;20171;-88
2022/12/21 07:55:47;;;;;;;128.97;46.50;;;;;;;;;;4978170;28;20182;-88
2022/12/21 07:58:13;;;;;;;151.67;49.07;;;;;;;;;;4965042;28;20216;-88
2022/12/21 08:00:40;;;;;;;128.30;46.30;;;;;;;;;;4982923;28;20193;-88
2022/12/21 08:03:06;;;;;;;123.00;44.47;;;;;;;;;;5012488;28;20193;-84
2022/12/21 08:05:32;;;;;;;132.93;45.30;;;;;;;;;;4998674;28;20179;-83
2022/12/21 08:08:00;;;;;;;117.30;44.53;;;;;;;;;;4979605;28;20208;-84
2022/12/21 08:10:26;;;;;;;107.37;42.83;;;;;;;;;;4982984;28;20202;-85
2022/12/21 08:12:53;;;;;;;120.57;44.43;;;;;;;;;;4996344;28;20186;-85
2022/12/21 08:15:21;;;;;;;126.23;45.13;;;;;;;;;;4984136;28;20186;-85
2022/12/21 08:17:47;;;;;;;115.13;44.33;;;;;;;;;;5000215;28;20237;-85
2022/12/21 08:20:13;;;;;;;120.73;44.17;;;;;;;;;;4982796;28;20196;-80
2022/12/21 08:22:39;;;;;;;108.50;44.10;;;;;;;;;;4983038;28;20248;-80
2022/12/21 08:25:06;;;;;;;112.57;43.50;;;;;;;;;;4980653;28;20365;-80
2022/12/21 08:27:32;;;;;;;102.40;42.13;;;;;;;;;;5011553;28;20182;-80
2022/12/21 08:29:58;;;;;;;100.83;43.23;;;;;;;;;;4970955;28;20189;-80
2022/12/21 08:32:24;;;;;;;106.93;42.17;;;;;;;;;;4974452;28;20206;-80
2022/12/21 08:34:50;;;;;;;82.77;38.20;;;;;;;;;;4992275;28;20193;-80
2022/12/21 08:37:16;;;;;;;87.53;39.07;;;;;;;;;;4990151;28;20185;-80
2022/12/21 08:39:42;;;;;;;85.00;37.87;;;;;;;;;;4981058;28;20193;-80
2022/12/21 08:42:08;;;;;;;79.97;36.80;;;;;;;;;;4975690;28;20240;-80
2022/12/21 08:44:34;;;;;;;85.07;37.40;;;;;;;;;;4989830;28;20223;-80
2022/12/21 08:47:00;;;;;;;79.93;34.83;;;;;;;;;;4978404;28;20283;-79
2022/12/21 08:49:26;;;;;;;68.57;33.07;;;;;;;;;;5011369;28;20182;-80
2022/12/21 08:51:52;;;;;;;72.40;34.07;;;;;;;;;;4986809;28;20183;-80
2022/12/21 08:54:18;;;;;;;67.80;34.27;;;;;;;;;;4992780;28;20266;-85
2022/12/21 08:56:44;;;;;;;63.03;31.73;;;;;;;;;;5005166;28;20194;-85
2022/12/21 08:59:11;;;;;;;55.40;30.37;;;;;;;;;;5009509;28;20224;-85
2022/12/21 09:01:37;;;;;;;59.80;30.57;;;;;;;;;;4993405;28;20200;-85
2022/12/21 09:04:03;;;;;;;48.90;28.53;;;;;;;;;;4982062;28;20189;-82
2022/12/21 09:06:29;;;;;;;55.83;29.07;;;;;;;;;;4991731;28;20188;-81
2022/12/21 09:08:56;;;;;;;47.00;27.97;;;;;;;;;;4997513;28;20186;-82
2022/12/21 09:11:27;;;;;;;51.03;28.63;;;;;;;;;;5008722;28;20182;-81
2022/12/21 09:13:53;;;;;;;44.13;26.50;;;;;;;;;;4985901;28;20236;-81
2022/12/21 09:16:20;;;;;;;49.80;28.27;;;;;;;;;;5016038;28;20189;-82
2022/12/21 09:18:47;;;;;;;49.50;27.23;;;;;;;;;;4983381;28;20232;-82
2022/12/21 09:21:15;;;;;;;50.07;28.07;;;;;;;;;;4995771;28;20181;-82
2022/12/21 09:23:41;;;;;;;48.60;28.17;;;;;;;;;;4978611;28;20185;-81
2022/12/21 09:26:07;;;;;;;50.67;28.70;;;;;;;;;;4979580;28;20190;-81
2022/12/21 09:28:34;;;;;;;45.60;27.60;;;;;;;;;;4975115;28;20197;-81
2022/12/21 09:31:09;;;;;;;43.87;27.40;;;;;;;;;;5010888;28;20209;-82
2022/12/21 09:33:35;;;;;;;40.77;26.40;;;;;;;;;;4984388;28;20187;-82
2022/12/21 09:36:02;;;;;;;47.77;27.27;;;;;;;;;;4994330;28;20190;-82
2022/12/21 09:38:29;;;;;;;40.50;26.80;;;;;;;;;;4984860;28;20205;-82
2022/12/21 09:40:59;;;;;;;44.77;27.20;;;;;;;;;;4997848;28;20200;-82
2022/12/21 09:43:29;;;;;;;48.03;27.03;;;;;;;;;;4997468;28;20173;-90
2022/12/21 09:45:55;;;;;;;47.67;25.53;;;;;;;;;;5009340;28;20319;-89
2022/12/21 09:48:31;;;;;;;43.23;26.00;;;;;;;;;;4997496;28;20256;-88
2022/12/21 09:51:20;;;;;;;45.30;26.47;;;;;;;;;;5012469;28;20183;-85
2022/12/21 09:53:46;;;;;;;38.43;25.23;;;;;;;;;;4966920;28;20284;-86
2022/12/21 09:56:15;;;;;;;38.77;25.53;;;;;;;;;;5010573;28;20213;-85
2022/12/21 09:58:42;;;;;;;37.97;25.10;;;;;;;;;;5002504;28;20210;-90
2022/12/21 10:01:15;;;;;;;37.90;23.70;;;;;;;;;;4981341;28;20293;-89
2022/12/21 10:03:56;;;;;;;39.17;25.33;;;;;;;;;;4978213;28;20180;-89
2022/12/21 10:06:45;;;;;;;41.23;24.63;;;;;;;;;;4978127;28;20194;-89
2022/12/21 10:09:11;;;;;;;40.90;25.50;;;;;;;;;;4976054;28;20189;-90
2022/12/21 10:11:37;;;;;;;42.57;24.57;;;;;;;;;;4997533;28;20255;-89
2022/12/21 10:14:17;;;;;;;42.27;23.67;;;;;;;;;;4985356;28;20186;-89
2022/12/21 10:16:51;;;;;;;44.73;23.23;;;;;;;;;;4997096;28;20182;-81
2022/12/21 10:19:26;;;;;;;43.57;23.63;;;;;;;;;;5003082;28;20223;-81
2022/12/21 10:21:55;;;;;;;41.43;22.80;;;;;;;;;;5011133;28;20181;-81
2022/12/21 10:24:47;;;;;;;36.47;22.33;;;;;;;;;;4996518;28;20216;-81
2022/12/21 10:27:32;;;;;;;42.13;22.57;;;;;;;;;;4978147;28;20185;-81
2022/12/21 10:29:59;;;;;;;39.07;23.07;;;;;;;;;;4997660;28;20179;-80
2022/12/21 10:32:30;;;;;;;40.20;23.10;;;;;;;;;;4977219;28;20204;-91
2022/12/21 10:34:57;;;;;;;43.63;24.07;;;;;;;;;;4998758;28;20178;-90
2022/12/21 10:37:23;;;;;;;43.30;22.87;;;;;;;;;;4989442;28;20189;-88
2022/12/21 10:39:59;;;;;;;40.63;23.07;;;;;;;;;;4996650;28;20199;-89
2022/12/21 10:42:25;;;;;;;44.47;23.17;;;;;;;;;;4992154;28;20232;-89
2022/12/21 10:44:51;;;;;;;45.63;22.60;;;;;;;;;;5009406;28;20185;-89
2022/12/21 10:47:19;;;;;;;44.70;23.27;;;;;;;;;;4988515;28;20278;-89
2022/12/21 10:50:08;;;;;;;42.27;23.00;;;;;;;;;;4994756;28;20221;-81
2022/12/21 10:52:34;;;;;;;52.00;23.40;;;;;;;;;;4965514;28;20195;-81
2022/12/21 10:55:00;;;;;;;44.93;22.63;;;;;;;;;;5001394;28;20174;-81
2022/12/21 10:57:29;;;;;;;37.50;21.77;;;;;;;;;;4985622;28;20194;-81
2022/12/21 10:59:55;;;;;;;41.47;22.77;;;;;;;;;;5000947;28;20233;-80
2022/12/21 11:02:47;;;;;;;39.20;22.33;;;;;;;;;;4970733;28;20186;-80
2022/12/21 11:05:27;;;;;;;41.90;22.60;;;;;;;;;;4978464;28;20215;-83
2022/12/21 11:07:53;;;;;;;46.07;23.07;;;;;;;;;;4979518;28;20196;-82
2022/12/21 11:10:25;;;;;;;40.50;23.10;;;;;;;;;;4986487;28;20186;-82
2022/12/21 11:12:52;;;;;;;44.70;23.67;;;;;;;;;;4996303;28;20195;-81
2022/12/21 11:15:20;;;;;;;44.13;25.47;;;;;;;;;;4972233;28;20188;-81
2022/12/21 11:17:46;;;;;;;47.97;26.17;;;;;;;;;;4979683;28;20210;-81
2022/12/21 11:20:19;;;;;;;48.40;26.70;;;;;;;;;;5008434;28;20281;-81
2022/12/21 11:22:46;;;;;;;49.03;27.57;;;;;;;;;;4992187;28;20272;-82
2022/12/21 11:25:16;;;;;;;47.13;28.33;;;;;;;;;;4996640;28;20186;-82
2022/12/21 11:27:45;;;;;;;53.50;29.17;;;;;;;;;;4982609;28;20181;-83
2022/12/21 11:30:20;;;;;;;50.17;29.17;;;;;;;;;;4984128;28;20217;-83
2022/12/21 11:32:47;;;;;;;46.43;29.47;;;;;;;;;;4977087;28;20253;-82
2022/12/21 11:35:19;;;;;;;53.60;31.83;;;;;;;;;;4999506;28;20187;-82
2022/12/21 11:37:46;;;;;;;48.50;31.30;;;;;;;;;;4990427;28;20204;-82
2022/12/21 11:40:13;;;;;;;46.73;31.60;;;;;;;;;;4990548;28;20175;-85
2022/12/21 11:43:02;;;;;;;49.43;32.07;;;;;;;;;;5003914;28;20224;-85
2022/12/21 11:45:31;;;;;;;48.63;31.50;;;;;;;;;;5007273;23;20303;-79
2022/12/21 11:48:16;;;;;;;52.30;32.60;;;;;;;;;;5035916;28;20235;-79
2022/12/21 11:51:03;;;;;;;48.20;32.73;;;;;;;;;;5003077;28;20265;-79
2022/12/21 11:53:48;;;;;;;46.97;32.33;;;;;;;;;;5018707;28;20177;-79
2022/12/21 11:56:33;;;;;;;44.27;28.97;;;;;;;;;;5004070;28;20267;-79
2022/12/21 11:59:02;;;;;;;43.30;28.57;;;;;;;;;;5030783;28;20216;-79
2022/12/21 12:01:31;;;;;;;40.93;27.73;;;;;;;;;;5020354;28;20256;-79
2022/12/21 12:03:57;;;;;;;39.27;25.53;;;;;;;;;;4997892;28;20185;-79
2022/12/21 12:06:42;;;;;;;35.80;23.80;;;;;;;;;;5001772;28;20189;-78
2022/12/21 12:09:26;;;;;;;37.67;23.73;;;;;;;;;;5001036;28;20242;-78
2022/12/21 12:11:55;;;;;;;34.00;22.37;;;;;;;;;;5034419;28;20189;-85
2022/12/21 12:14:44;;;;;;;32.87;21.43;;;;;;;;;;5010120;28;20188;-85
2022/12/21 12:17:33;;;;;;;28.97;19.33;;;;;;;;;;5016911;28;20272;-87
2022/12/21 12:20:12;;;;;;;28.17;18.73;;;;;;;;;;4995246;28;20209;-85
2022/12/21 12:22:57;;;;;;;32.27;18.17;;;;;;;;;;4988568;28;20165;-85
2022/12/21 12:25:35;;;;;;;31.07;18.20;;;;;;;;;;5016464;28;20203;-84
2022/12/21 12:28:04;;;;;;;30.77;17.83;;;;;;;;;;5005101;28;20184;-84
2022/12/21 12:30:37;;;;;;;34.13;19.23;;;;;;;;;;5007262;28;20239;-84
2022/12/21 12:33:03;;;;;;;31.87;18.33;;;;;;;;;;5016920;28;20173;-88
2022/12/21 12:35:29;;;;;;;31.03;18.77;;;;;;;;;;5010734;28;20204;-84
2022/12/21 12:38:10;;;;;;;35.67;18.73;;;;;;;;;;5007410;28;20201;-84
2022/12/21 12:40:48;;;;;;;28.73;17.97;;;;;;;;;;4999734;28;20181;-84
2022/12/21 12:43:38;;;;;;;29.03;17.60;;;;;;;;;;5015842;28;20187;-84
2022/12/21 12:46:08;;;;;;;27.17;17.47;;;;;;;;;;4997759;28;20221;-80
2022/12/21 12:48:53;;;;;;;29.23;19.10;;;;;;;;;;5002384;28;20220;-80
2022/12/21 12:51:30;;;;;;;29.60;18.53;;;;;;;;;;5015814;28;20204;-80
2022/12/21 12:54:02;;;;;;;27.53;18.83;;;;;;;;;;4999561;28;20191;-80
2022/12/21 12:56:28;;;;;;;30.60;18.63;;;;;;;;;;5015612;28;20209;-80
2022/12/21 12:59:00;;;;;;;27.97;19.27;;;;;;;;;;5000756;28;20247;-80
2022/12/21 13:01:43;;;;;;;29.13;18.47;;;;;;;;;;4998675;28;20181;-80
2022/12/21 13:04:21;;;;;;;25.87;17.60;;;;;;;;;;5000180;28;20187;-88
2022/12/21 13:07:00;;;;;;;28.80;17.90;;;;;;;;;;5014838;28;20184;-88
2022/12/21 13:09:29;;;;;;;29.27;18.00;;;;;;;;;;4999979;28;20185;-88
2022/12/21 13:12:01;;;;;;;29.73;19.63;;;;;;;;;;5014478;28;20180;-88
2022/12/21 13:14:54;;;;;;;30.63;19.10;;;;;;;;;;5000364;28;20189;-79
2022/12/21 13:17:23;;;;;;;25.07;17.40;;;;;;;;;;4996207;28;20194;-78
2022/12/21 13:19:50;;;;;;;26.63;16.73;;;;;;;;;;5031448;28;20184;-80
2022/12/21 13:22:17;;;;;;;29.37;18.23;;;;;;;;;;5007568;28;20181;-80
2022/12/21 13:24:47;;;;;;;24.30;16.13;;;;;;;;;;4997699;28;20209;-80
2022/12/21 13:27:25;;;;;;;26.90;16.07;;;;;;;;;;4997723;28;20248;-80
2022/12/21 13:30:27;;;;;;;25.00;16.10;;;;;;;;;;5010995;28;20182;-80
2022/12/21 13:32:55;;;;;;;23.77;17.07;;;;;;;;;;4948853;29;20192;-81
2022/12/21 13:35:36;;;;;;;25.47;16.83;;;;;;;;;;4996269;28;20247;-83
2022/12/21 13:38:16;;;;;;;25.70;16.40;;;;;;;;;;5014664;28;20204;-83
2022/12/21 13:40:45;;;;;;;22.27;16.23;;;;;;;;;;5016362;28;20183;-83
2022/12/21 13:43:30;;;;;;;23.23;16.03;;;;;;;;;;5012081;28;20192;-83
2022/12/21 13:45:56;;;;;;;23.20;15.73;;;;;;;;;;5003541;28;20307;-83
2022/12/21 13:48:28;;;;;;;23.70;16.57;;;;;;;;;;5010591;28;20261;-84
2022/12/21 13:51:13;;;;;;;23.63;16.43;;;;;;;;;;4996762;28;20192;-83
2022/12/21 13:53:52;;;;;;;24.80;16.57;;;;;;;;;;4995831;28;20260;-79
2022/12/21 13:56:30;;;;;;;23.13;16.17;;;;;;;;;;4995517;28;20178;-79
2022/12/21 13:59:02;;;;;;;22.07;15.80;;;;;;;;;;5000933;28;20209;-78
2022/12/21 14:01:46;;;;;;;26.30;15.97;;;;;;;;;;5023737;28;20276;-79
2022/12/21 14:04:12;;;;;;;27.83;16.57;;;;;;;;;;4997154;28;20216;-79
2022/12/21 14:06:48;;;;;;;24.30;16.60;;;;;;;;;;5001490;28;20181;-79
2022/12/21 14:09:21;;;;;;;22.27;15.80;;;;;;;;;;5010206;28;20280;-84
2022/12/21 14:12:06;;;;;;;26.10;15.60;;;;;;;;;;4987277;28;20186;-84
2022/12/21 14:14:52;;;;;;;22.70;15.73;;;;;;;;;;4993743;28;20193;-83
2022/12/21 14:17:22;;;;;;;27.63;17.47;;;;;;;;;;5012480;28;20188;-83
2022/12/21 14:19:52;;;;;;;26.47;17.07;;;;;;;;;;5008407;28;20177;-83
2022/12/21 14:22:42;;;;;;;28.97;16.97;;;;;;;;;;5005001;28;20172;-83
2022/12/21 14:25:32;;;;;;;22.63;15.07;;;;;;;;;;5009687;28;20193;-80
2022/12/21 14:28:14;;;;;;;22.87;13.67;;;;;;;;;;5017562;28;20280;-80
2022/12/21 14:30:46;;;;;;;20.50;13.70;;;;;;;;;;4999788;28;20192;-80
2022/12/21 14:33:16;;;;;;;21.23;13.40;;;;;;;;;;4996632;28;20188;-80
2022/12/21 14:35:43;;;;;;;21.83;14.03;;;;;;;;;;4986531;28;20182;-80
2022/12/21 14:38:29;;;;;;;22.73;13.37;;;;;;;;;;5022073;28;20213;-80